Time;durP1;ratioP1;P1;durP2;ratioP2;P2;SDS_P1;SDS_P2;PMS_P1;PMS_P2;Temp;Humidity;BMP_temperature;BMP_pressure;BME280_temperature;BME280_humidity;BME280_pressure;Samples;Min_cycle;Max_cycle;Signal;HPM_P1;HPM_P2
2022/01/02 00:01:20;;;;;;;4.20;2.50;;;9.30;99.90;;;;;;5059197;28;20052;-82
2022/01/02 00:03:52;;;;;;;4.40;2.42;;;9.40;99.90;;;;;;5059527;28;20044;-83
2022/01/02 00:06:26;;;;;;;2.97;1.92;;;9.40;99.90;;;;;;5059571;28;20086;-82
2022/01/02 00:09:00;;;;;;;3.70;2.15;;;9.60;99.90;;;;;;5058906;28;20083;-82
2022/01/02 00:11:26;;;;;;;3.40;2.13;;;9.60;99.90;;;;;;5058904;28;20128;-83
2022/01/02 00:14:00;;;;;;;5.95;2.00;;;9.70;99.90;;;;;;5058815;28;20079;-82
2022/01/02 00:16:28;;;;;;;5.07;2.47;;;9.80;99.90;;;;;;5076008;28;20131;-82
2022/01/02 00:19:08;;;;;;;4.75;2.50;;;9.90;99.90;;;;;;5058074;28;20063;-82
2022/01/02 00:21:44;;;;;;;3.15;2.47;;;9.80;99.90;;;;;;5057521;28;20100;-83
2022/01/02 00:24:16;;;;;;;4.57;2.80;;;9.80;99.90;;;;;;5057777;28;20055;-82
2022/01/02 00:26:45;;;;;;;3.70;2.63;;;9.70;99.90;;;;;;5057376;28;20127;-83
2022/01/02 00:29:13;;;;;;;4.57;2.40;;;9.70;99.90;;;;;;5057645;28;20128;-82
2022/01/02 00:31:40;;;;;;;4.50;3.00;;;9.70;99.90;;;;;;5057221;28;20111;-83
2022/01/02 00:34:08;;;;;;;4.10;3.08;;;9.70;99.90;;;;;;5056922;28;20159;-83
2022/01/02 00:36:36;;;;;;;5.57;2.80;;;9.80;99.90;;;;;;5060119;28;20139;-83
2022/01/02 00:39:06;;;;;;;3.90;2.80;;;9.80;99.90;;;;;;5061392;28;20041;-83
2022/01/02 00:41:54;;;;;;;5.70;3.20;;;9.70;99.90;;;;;;5079172;28;20048;-83
2022/01/02 00:44:26;;;;;;;3.95;3.50;;;9.70;99.90;;;;;;5060526;28;20102;-83
2022/01/02 00:47:11;;;;;;;5.03;3.20;;;9.80;99.90;;;;;;5079004;28;20055;-83
2022/01/02 00:49:40;;;;;;;5.22;3.20;;;9.90;99.90;;;;;;5077291;28;20136;-82
2022/01/02 00:52:17;;;;;;;5.60;3.10;;;10.00;99.90;;;;;;5059429;28;20048;-83
2022/01/02 00:54:47;;;;;;;5.88;3.28;;;10.00;99.90;;;;;;5072014;28;20041;-83
2022/01/02 00:57:17;;;;;;;6.10;3.80;;;9.90;99.90;;;;;;5077869;28;20059;-83
2022/01/02 00:59:48;;;;;;;7.32;4.03;;;10.00;99.90;;;;;;5072812;28;20108;-83
2022/01/02 01:02:18;;;;;;;5.97;4.20;;;10.00;99.90;;;;;;5062237;28;20076;-83
2022/01/02 01:04:47;;;;;;;7.25;4.00;;;10.10;99.90;;;;;;5080012;28;20100;-81
2022/01/02 01:07:14;;;;;;;10.20;3.95;;;10.20;99.90;;;;;;5080888;28;20056;-82
2022/01/02 01:09:41;;;;;;;5.32;3.80;;;10.30;99.90;;;;;;5094107;28;20080;-82
2022/01/02 01:12:10;;;;;;;5.65;4.32;;;10.20;99.90;;;;;;5069942;28;20083;-83
2022/01/02 01:14:38;;;;;;;5.32;3.53;;;10.20;99.90;;;;;;5061245;28;20064;-83
2022/01/02 01:17:05;;;;;;;7.53;4.32;;;10.10;99.90;;;;;;5061009;28;20086;-83
2022/01/02 01:19:31;;;;;;;5.88;3.70;;;10.10;99.90;;;;;;5077503;28;20040;-83
2022/01/02 01:21:58;;;;;;;4.75;3.63;;;10.10;99.90;;;;;;5060021;28;20494;-83
2022/01/02 01:24:25;;;;;;;6.57;3.95;;;10.00;99.90;;;;;;5077771;28;20108;-83
2022/01/02 01:26:55;;;;;;;6.45;3.90;;;9.90;99.90;;;;;;5059345;28;20083;-83
2022/01/02 01:29:22;;;;;;;5.15;3.95;;;9.90;99.90;;;;;;5062863;28;20123;-83
2022/01/02 01:31:49;;;;;;;6.05;3.95;;;9.90;99.90;;;;;;5063517;28;20476;-83
2022/01/02 01:34:16;;;;;;;5.53;3.80;;;9.80;99.90;;;;;;5080426;28;20084;-83
2022/01/02 01:36:42;;;;;;;4.78;3.80;;;9.80;99.90;;;;;;5081220;28;20068;-83
2022/01/02 01:39:09;;;;;;;5.45;4.05;;;9.70;99.90;;;;;;5062772;28;20461;-83
2022/01/02 01:41:38;;;;;;;8.15;4.28;;;9.60;99.90;;;;;;5063045;28;20485;-83
2022/01/02 01:44:27;;;;;;;6.18;4.60;;;9.60;99.90;;;;;;5079913;28;20517;-82
2022/01/02 01:46:55;;;;;;;8.75;5.25;;;9.60;99.90;;;;;;5081192;28;20144;-83
2022/01/02 01:49:27;;;;;;;9.35;5.15;;;9.70;99.90;;;;;;5081296;28;20048;-83
2022/01/02 01:51:55;;;;;;;10.18;4.95;;;9.60;99.90;;;;;;5063002;28;20413;-83
2022/01/02 01:54:23;;;;;;;7.45;5.20;;;9.50;99.90;;;;;;5061906;28;20091;-83
2022/01/02 01:56:51;;;;;;;6.63;4.80;;;9.30;99.90;;;;;;5080014;28;20135;-83
2022/01/02 01:59:20;;;;;;;7.38;4.65;;;9.20;99.90;;;;;;5079687;28;20558;-83
2022/01/02 02:01:48;;;;;;;9.73;5.28;;;9.10;99.90;;;;;;5067649;28;20135;-83
2022/01/02 02:04:15;;;;;;;10.07;5.65;;;8.90;99.90;;;;;;5065769;28;20049;-83
2022/01/02 02:06:43;;;;;;;8.10;5.55;;;8.70;99.90;;;;;;5065121;28;20048;-83
2022/01/02 02:09:10;;;;;;;8.73;5.40;;;8.50;99.90;;;;;;5063588;28;20051;-83
2022/01/02 02:11:38;;;;;;;10.65;6.15;;;8.40;99.90;;;;;;5063726;28;20058;-83
2022/01/02 02:14:07;;;;;;;9.85;5.90;;;8.40;99.90;;;;;;5064351;28;20048;-83
2022/01/02 02:16:35;;;;;;;8.00;5.55;;;8.40;99.90;;;;;;5064047;28;20052;-83
2022/01/02 02:19:04;;;;;;;7.57;5.18;;;8.30;99.90;;;;;;5063937;28;20041;-83
2022/01/02 02:21:33;;;;;;;8.18;4.70;;;8.00;99.90;;;;;;5078518;28;20421;-83
2022/01/02 02:24:00;;;;;;;8.73;4.97;;;7.90;99.90;;;;;;5060528;28;20104;-83
2022/01/02 02:26:27;;;;;;;7.55;4.78;;;7.80;99.90;;;;;;5071099;28;20140;-83
2022/01/02 02:28:54;;;;;;;7.63;4.75;;;7.70;99.90;;;;;;5085755;28;20056;-83
2022/01/02 02:31:20;;;;;;;5.75;4.80;;;7.50;99.90;;;;;;5062288;28;20136;-83
2022/01/02 02:33:47;;;;;;;5.00;4.10;;;7.40;99.90;;;;;;5063138;28;20049;-83
2022/01/02 02:36:14;;;;;;;7.50;4.88;;;7.30;99.90;;;;;;5062253;28;20135;-83
2022/01/02 02:38:41;;;;;;;12.05;6.07;;;7.20;99.90;;;;;;5061887;28;20153;-83
2022/01/02 02:41:08;;;;;;;11.15;7.50;;;7.30;99.90;;;;;;5061585;28;20124;-83
2022/01/02 02:43:50;;;;;;;13.18;8.13;;;7.40;99.90;;;;;;5061584;28;20102;-83
2022/01/02 02:49:04;;;;;;;11.10;7.43;;;7.80;99.90;;;;;;5079608;28;20044;-83
2022/01/02 02:51:56;;;;;;;11.90;7.10;;;8.00;99.90;;;;;;5081281;28;20135;-83
2022/01/02 02:54:25;;;;;;;11.02;7.25;;;8.10;99.90;;;;;;5078730;28;20113;-83
2022/01/02 02:56:58;;;;;;;9.75;6.80;;;8.30;99.90;;;;;;5078906;28;20136;-82
2022/01/02 02:59:27;;;;;;;9.10;6.05;;;8.40;99.90;;;;;;5060420;28;20048;-82
2022/01/02 03:01:56;;;;;;;8.52;5.82;;;8.50;99.90;;;;;;5060916;28;20175;-82
2022/01/02 03:04:23;;;;;;;8.70;5.63;;;8.60;99.90;;;;;;5059884;28;20408;-82
2022/01/02 03:06:50;;;;;;;8.38;5.50;;;8.60;99.90;;;;;;5060287;28;20420;-82
2022/01/02 03:09:36;;;;;;;7.07;4.95;;;8.70;99.90;;;;;;5063510;28;20048;-83
2022/01/02 03:12:04;;;;;;;11.18;5.65;;;8.70;99.90;;;;;;5061343;28;20155;-83
2022/01/02 03:14:32;;;;;;;7.32;5.38;;;8.80;99.90;;;;;;5063090;28;20568;-82
2022/01/02 03:16:59;;;;;;;7.22;5.20;;;8.80;99.90;;;;;;5062121;28;20056;-82
2022/01/02 03:19:26;;;;;;;9.85;5.43;;;8.80;99.90;;;;;;5063349;28;20148;-83
2022/01/02 03:21:53;;;;;;;6.43;5.07;;;8.80;99.90;;;;;;5078212;28;20491;-83
2022/01/02 03:24:20;;;;;;;8.02;5.43;;;8.80;99.90;;;;;;5060021;28;20555;-83
2022/01/02 03:26:47;;;;;;;6.50;4.90;;;8.80;99.90;;;;;;5077923;28;20100;-83
2022/01/02 03:29:13;;;;;;;8.90;5.68;;;8.70;99.90;;;;;;5060172;28;20116;-83
2022/01/02 03:31:40;;;;;;;7.95;5.30;;;8.60;99.90;;;;;;5059473;28;20095;-83
2022/01/02 03:34:08;;;;;;;11.40;5.82;;;8.60;99.90;;;;;;5060416;28;20045;-83
2022/01/02 03:36:34;;;;;;;8.00;5.43;;;8.60;99.90;;;;;;5056844;28;20123;-82
2022/01/02 03:39:03;;;;;;;7.55;6.18;;;8.60;99.90;;;;;;5056546;28;20078;-82
2022/01/02 03:41:29;;;;;;;6.78;5.28;;;8.60;99.90;;;;;;5056388;28;20044;-81
2022/01/02 03:43:56;;;;;;;7.88;5.50;;;8.60;99.90;;;;;;5074221;28;20059;-82
2022/01/02 03:46:23;;;;;;;9.57;5.63;;;8.70;99.90;;;;;;5074147;28;20135;-82
2022/01/02 03:48:49;;;;;;;6.70;5.50;;;8.70;99.90;;;;;;5056545;28;20044;-81
2022/01/02 03:51:16;;;;;;;8.57;5.35;;;8.70;99.90;;;;;;5059037;28;20111;-83
2022/01/02 03:53:43;;;;;;;12.05;5.38;;;8.80;99.90;;;;;;5062233;28;20084;-83
2022/01/02 03:56:09;;;;;;;7.70;4.82;;;8.80;99.90;;;;;;5060871;28;20048;-83
2022/01/02 03:58:36;;;;;;;7.60;5.07;;;8.80;99.90;;;;;;5060594;28;20117;-83
2022/01/02 04:01:03;;;;;;;7.07;5.50;;;8.80;99.90;;;;;;5059812;28;20140;-83
2022/01/02 04:03:30;;;;;;;7.57;5.40;;;8.80;99.90;;;;;;5078385;28;20424;-83
2022/01/02 04:05:56;;;;;;;7.85;5.90;;;8.70;99.90;;;;;;5061532;28;20076;-83
2022/01/02 04:08:23;;;;;;;7.32;5.18;;;8.70;99.90;;;;;;5077693;28;20054;-82
2022/01/02 04:10:50;;;;;;;6.53;5.78;;;8.60;99.90;;;;;;5059176;28;20076;-83
2022/01/02 04:13:17;;;;;;;8.57;6.38;;;8.60;99.90;;;;;;5059022;28;20116;-82
2022/01/02 04:15:44;;;;;;;8.05;6.00;;;8.60;99.90;;;;;;5059728;28;20139;-83
2022/01/02 04:18:10;;;;;;;8.32;6.53;;;8.50;99.90;;;;;;5058675;28;20139;-83
2022/01/02 04:20:37;;;;;;;5.85;5.03;;;8.40;99.90;;;;;;5076922;28;20576;-83
2022/01/02 04:23:04;;;;;;;6.90;5.80;;;8.40;99.90;;;;;;5058962;28;20493;-83
2022/01/02 04:25:31;;;;;;;7.75;6.07;;;8.40;99.90;;;;;;5058341;28;20055;-83
2022/01/02 04:27:57;;;;;;;7.80;5.82;;;8.40;99.90;;;;;;5075559;28;20131;-83
2022/01/02 04:30:24;;;;;;;8.35;6.43;;;8.30;99.90;;;;;;5075437;28;20082;-83
2022/01/02 04:32:52;;;;;;;9.63;6.78;;;8.40;99.90;;;;;;5074930;28;20108;-82
2022/01/02 04:35:19;;;;;;;9.10;6.03;;;8.40;99.90;;;;;;5057608;28;20055;-83
2022/01/02 04:37:47;;;;;;;8.38;6.65;;;8.30;99.90;;;;;;5057520;28;20135;-83
2022/01/02 04:40:13;;;;;;;10.30;6.60;;;8.40;99.90;;;;;;5058121;28;20052;-83
2022/01/02 04:42:40;;;;;;;8.65;6.45;;;8.50;99.90;;;;;;5076525;28;20060;-83
2022/01/02 04:45:08;;;;;;;9.82;6.90;;;8.50;99.90;;;;;;5092025;28;20104;-83
2022/01/02 04:47:35;;;;;;;8.20;5.97;;;8.60;99.90;;;;;;5084236;28;20048;-83
2022/01/02 04:50:04;;;;;;;8.77;6.30;;;8.60;99.90;;;;;;5077744;28;20479;-83
2022/01/02 04:52:31;;;;;;;9.38;5.80;;;8.70;99.90;;;;;;5086539;28;20078;-84
2022/01/02 04:54:58;;;;;;;7.18;6.03;;;8.70;99.90;;;;;;5071874;28;20059;-83
2022/01/02 04:57:24;;;;;;;7.40;5.63;;;8.70;99.90;;;;;;5093884;28;20075;-83
2022/01/02 04:59:51;;;;;;;10.32;6.80;;;8.70;99.90;;;;;;5081970;28;20123;-83
2022/01/02 05:02:18;;;;;;;7.20;5.90;;;8.70;99.90;;;;;;5059563;28;20472;-84
2022/01/02 05:04:45;;;;;;;6.75;5.57;;;8.60;99.90;;;;;;5060630;28;20052;-83
2022/01/02 05:07:13;;;;;;;6.82;5.45;;;8.70;99.90;;;;;;5077886;28;20075;-83
2022/01/02 05:09:41;;;;;;;9.65;6.25;;;8.70;99.90;;;;;;5059704;28;20053;-84
2022/01/02 05:12:08;;;;;;;5.93;5.32;;;8.70;99.90;;;;;;5059744;28;20108;-84
2022/01/02 05:14:34;;;;;;;6.10;5.07;;;8.70;99.90;;;;;;5060021;28;20135;-83
2022/01/02 05:17:01;;;;;;;5.72;4.70;;;8.70;99.90;;;;;;5059802;28;20080;-84
2022/01/02 05:19:28;;;;;;;5.18;4.68;;;8.80;99.90;;;;;;5059280;28;20479;-83
2022/01/02 05:21:55;;;;;;;5.28;4.65;;;8.80;99.90;;;;;;5059766;28;20054;-84
2022/01/02 05:24:22;;;;;;;7.70;4.32;;;8.80;99.90;;;;;;5059371;28;20041;-84
2022/01/02 05:26:49;;;;;;;6.55;4.65;;;8.90;99.90;;;;;;5058906;28;20127;-83
2022/01/02 05:29:16;;;;;;;5.32;4.82;;;8.90;99.90;;;;;;5065587;28;20076;-84
2022/01/02 05:31:43;;;;;;;5.18;4.55;;;8.90;99.90;;;;;;5069286;28;20083;-83
2022/01/02 05:34:10;;;;;;;5.45;4.80;;;8.90;99.90;;;;;;5068802;28;20076;-84
2022/01/02 05:36:36;;;;;;;7.70;4.50;;;8.90;99.90;;;;;;5060827;28;20116;-84
2022/01/02 05:39:04;;;;;;;4.30;3.90;;;8.80;99.90;;;;;;5078498;28;20104;-84
2022/01/02 05:41:32;;;;;;;4.45;4.05;;;8.80;99.90;;;;;;5061104;28;20076;-84
2022/01/02 05:43:59;;;;;;;6.57;3.90;;;8.80;99.90;;;;;;5060696;28;20119;-84
2022/01/02 05:46:26;;;;;;;8.00;5.47;;;8.70;99.90;;;;;;5056723;28;20051;-83
2022/01/02 05:48:52;;;;;;;7.88;4.63;;;8.60;99.90;;;;;;5054714;28;20070;-83
2022/01/02 05:51:19;;;;;;;10.55;6.05;;;8.60;99.90;;;;;;5072198;28;20059;-82
2022/01/02 05:53:46;;;;;;;5.78;4.63;;;8.60;99.90;;;;;;5054702;28;20476;-84
2022/01/02 05:56:13;;;;;;;7.50;4.70;;;8.50;99.90;;;;;;5054734;28;20461;-83
2022/01/02 05:58:39;;;;;;;6.00;4.10;;;8.40;99.90;;;;;;5054742;28;20052;-84
2022/01/02 06:01:06;;;;;;;4.30;3.90;;;8.40;99.90;;;;;;5054638;28;20128;-84
2022/01/02 06:03:33;;;;;;;8.60;4.60;;;8.30;99.90;;;;;;5055118;28;20440;-84
2022/01/02 06:06:00;;;;;;;5.10;4.10;;;8.20;99.90;;;;;;5057122;28;20556;-84
2022/01/02 06:08:27;;;;;;;7.30;4.82;;;8.20;99.90;;;;;;5059269;28;20131;-84
2022/01/02 06:10:54;;;;;;;5.88;4.22;;;8.20;99.90;;;;;;5059057;28;20072;-84
2022/01/02 06:13:21;;;;;;;6.47;4.63;;;8.20;99.90;;;;;;5076977;28;20108;-84
2022/01/02 06:15:47;;;;;;;7.97;4.65;;;8.10;99.90;;;;;;5062622;28;20123;-84
2022/01/02 06:18:14;;;;;;;5.18;4.43;;;8.10;99.90;;;;;;5061331;28;20488;-84
2022/01/02 06:20:41;;;;;;;7.07;4.68;;;8.10;99.90;;;;;;5062209;28;20239;-84
2022/01/02 06:23:08;;;;;;;6.85;4.30;;;8.00;99.90;;;;;;5063709;28;20104;-84
2022/01/02 06:25:34;;;;;;;5.53;4.78;;;7.90;99.90;;;;;;5081378;28;20068;-84
2022/01/02 06:28:01;;;;;;;6.15;4.95;;;7.80;99.90;;;;;;5063135;28;20067;-84
2022/01/02 06:30:28;;;;;;;5.63;4.60;;;7.80;99.90;;;;;;5062140;28;20048;-84
2022/01/02 06:32:55;;;;;;;4.40;4.00;;;7.80;99.90;;;;;;5061274;28;20136;-83
2022/01/02 06:35:28;;;;;;;5.25;4.40;;;7.70;99.90;;;;;;5061695;28;20052;-84
2022/01/02 06:37:56;;;;;;;5.78;4.40;;;7.70;99.90;;;;;;5078738;28;20511;-84
2022/01/02 06:40:25;;;;;;;12.90;10.63;;;7.60;99.90;;;;;;5060990;28;20075;-84
2022/01/02 06:42:52;;;;;;;36.33;29.77;;;7.60;99.90;;;;;;5060653;28;20135;-83
2022/01/02 06:45:19;;;;;;;41.15;32.95;;;7.60;99.90;;;;;;5061214;28;20040;-84
2022/01/02 06:47:46;;;;;;;21.85;19.27;;;7.50;99.90;;;;;;5060576;28;20041;-84
2022/01/02 06:50:13;;;;;;;16.45;14.10;;;7.40;99.90;;;;;;5060407;28;20135;-84
2022/01/02 06:52:40;;;;;;;9.73;8.65;;;7.40;99.90;;;;;;5060222;28;20048;-84
2022/01/02 06:55:07;;;;;;;10.68;7.63;;;7.30;99.90;;;;;;5077757;28;20070;-84
2022/01/02 06:57:33;;;;;;;6.10;5.38;;;7.30;99.90;;;;;;5059693;28;20153;-84
2022/01/02 07:00:01;;;;;;;7.82;4.90;;;7.20;99.90;;;;;;5076776;28;20147;-83
2022/01/02 07:02:27;;;;;;;6.57;4.47;;;7.10;99.90;;;;;;5060056;28;20076;-84
2022/01/02 07:04:54;;;;;;;5.97;4.20;;;7.10;99.90;;;;;;5059253;28;20425;-84
2022/01/02 07:07:21;;;;;;;6.80;4.93;;;7.10;99.90;;;;;;5061178;28;20084;-84
2022/01/02 07:09:48;;;;;;;7.60;6.85;;;7.00;99.90;;;;;;5063639;28;20079;-84
2022/01/02 07:12:14;;;;;;;7.78;6.63;;;7.10;99.90;;;;;;5081335;28;20131;-84
2022/01/02 07:14:41;;;;;;;8.32;6.32;;;7.10;99.90;;;;;;5062588;28;20108;-84
2022/01/02 07:17:08;;;;;;;9.38;6.13;;;7.00;99.90;;;;;;5062460;28;20048;-84
2022/01/02 07:19:35;;;;;;;8.48;6.00;;;6.90;99.90;;;;;;5079527;28;20084;-84
2022/01/02 07:22:02;;;;;;;9.40;5.82;;;7.00;99.90;;;;;;5061531;28;20132;-84
2022/01/02 07:24:28;;;;;;;8.88;6.32;;;7.20;99.90;;;;;;5079629;28;20048;-83
2022/01/02 07:26:55;;;;;;;9.85;5.55;;;7.20;99.90;;;;;;5060345;28;20127;-84
2022/01/02 07:29:22;;;;;;;7.72;5.50;;;7.40;99.90;;;;;;5060707;28;20048;-83
2022/01/02 07:31:49;;;;;;;10.73;7.28;;;7.60;99.90;;;;;;5060470;28;20109;-83
2022/01/02 07:34:15;;;;;;;8.20;5.40;;;7.80;99.90;;;;;;5057657;28;20048;-83
2022/01/02 07:36:45;;;;;;;6.00;4.63;;;7.90;99.90;;;;;;5074428;28;20459;-83
2022/01/02 07:39:13;;;;;;;6.30;5.60;;;8.00;99.90;;;;;;5056917;28;20415;-83
2022/01/02 07:41:41;;;;;;;14.18;9.23;;;8.10;99.90;;;;;;5056707;28;20135;-82
2022/01/02 07:44:08;;;;;;;5.72;4.75;;;8.20;99.90;;;;;;5066255;28;20080;-84
2022/01/02 07:46:35;;;;;;;12.27;7.82;;;8.20;99.90;;;;;;5082351;28;20136;-84
2022/01/02 07:49:03;;;;;;;6.07;3.92;;;8.30;99.90;;;;;;5062700;28;20412;-84
2022/01/02 07:51:31;;;;;;;5.45;4.43;;;8.40;99.90;;;;;;5062270;28;20143;-84
2022/01/02 07:53:58;;;;;;;4.70;4.22;;;8.50;99.90;;;;;;5079018;28;20481;-83
2022/01/02 07:56:25;;;;;;;6.40;4.20;;;8.60;99.90;;;;;;5061795;28;20135;-83
2022/01/02 07:58:51;;;;;;;7.38;4.03;;;8.70;99.90;;;;;;5060872;28;20484;-83
2022/01/02 08:01:19;;;;;;;5.85;4.20;;;8.70;99.90;;;;;;5078351;28;20131;-83
2022/01/02 08:03:46;;;;;;;4.55;4.10;;;8.80;99.90;;;;;;5079179;28;20074;-83
2022/01/02 08:06:13;;;;;;;5.93;3.85;;;8.90;99.90;;;;;;5060650;28;20124;-83
2022/01/02 08:08:40;;;;;;;5.38;4.13;;;9.00;99.90;;;;;;5059780;28;20128;-83
2022/01/02 08:11:07;;;;;;;5.32;3.78;;;9.00;99.90;;;;;;5066289;28;20112;-83
2022/01/02 08:13:34;;;;;;;5.60;4.15;;;9.10;99.90;;;;;;5064209;28;20136;-84
2022/01/02 08:16:00;;;;;;;5.28;4.20;;;9.20;99.90;;;;;;5060656;28;20150;-83
2022/01/02 08:18:27;;;;;;;5.43;4.60;;;9.20;99.90;;;;;;5061828;28;20128;-84
2022/01/02 08:20:54;;;;;;;8.35;4.68;;;9.20;99.90;;;;;;5061141;28;20040;-84
2022/01/02 08:23:20;;;;;;;7.07;5.18;;;9.10;99.90;;;;;;5061304;28;20062;-83
2022/01/02 08:25:47;;;;;;;6.57;5.22;;;9.10;99.90;;;;;;5060920;28;20045;-83
2022/01/02 08:28:15;;;;;;;5.50;4.45;;;9.10;99.90;;;;;;5078331;28;20148;-84
2022/01/02 08:30:43;;;;;;;6.22;5.07;;;9.10;99.90;;;;;;5092389;28;20032;-83
2022/01/02 08:33:10;;;;;;;7.10;5.38;;;9.10;99.90;;;;;;5077281;28;20048;-84
2022/01/02 08:35:37;;;;;;;6.53;4.93;;;9.10;99.90;;;;;;5087754;28;20056;-84
2022/01/02 08:38:04;;;;;;;5.10;4.60;;;9.20;99.90;;;;;;5078709;28;20557;-84
2022/01/02 08:40:31;;;;;;;5.85;4.50;;;9.30;99.90;;;;;;5074757;28;20067;-83
2022/01/02 08:42:58;;;;;;;6.13;4.57;;;9.40;99.90;;;;;;5075380;28;20120;-84
2022/01/02 08:45:24;;;;;;;6.50;4.80;;;9.50;99.90;;;;;;5077350;28;20053;-83
2022/01/02 08:47:51;;;;;;;4.85;4.38;;;9.50;99.90;;;;;;5072471;28;20049;-84
2022/01/02 08:50:18;;;;;;;4.38;4.05;;;9.60;99.90;;;;;;5062371;28;20131;-84
2022/01/02 08:52:44;;;;;;;5.47;4.55;;;9.70;99.90;;;;;;5082961;28;20112;-84
2022/01/02 08:55:11;;;;;;;5.93;5.43;;;9.70;99.90;;;;;;5079267;28;20112;-84
2022/01/02 08:57:38;;;;;;;5.38;4.88;;;9.90;99.90;;;;;;5061657;28;20139;-84
2022/01/02 09:00:06;;;;;;;5.97;4.40;;;10.00;99.90;;;;;;5060815;28;20087;-84
2022/01/02 09:02:32;;;;;;;5.13;4.03;;;10.20;99.90;;;;;;5061262;28;20075;-84
2022/01/02 09:04:59;;;;;;;4.22;3.58;;;10.40;99.90;;;;;;5061635;28;20083;-84
2022/01/02 09:07:26;;;;;;;5.30;4.45;;;10.50;99.90;;;;;;5061919;28;20040;-84
2022/01/02 09:09:53;;;;;;;6.00;4.00;;;10.70;99.90;;;;;;5060754;28;20072;-84
2022/01/02 09:12:19;;;;;;;7.47;5.03;;;10.80;99.90;;;;;;5060636;28;20059;-84
2022/01/02 09:14:46;;;;;;;7.75;4.65;;;10.90;99.90;;;;;;5060867;28;20139;-84
2022/01/02 09:17:13;;;;;;;5.07;4.43;;;11.00;99.90;;;;;;5077800;28;20575;-84
2022/01/02 09:19:39;;;;;;;7.70;4.40;;;11.00;99.90;;;;;;5059930;28;20143;-84
2022/01/02 09:22:06;;;;;;;6.63;4.43;;;11.20;99.90;;;;;;5060192;28;20049;-84
2022/01/02 09:24:34;;;;;;;4.93;3.97;;;11.40;99.90;;;;;;5059368;28;20394;-83
2022/01/02 09:27:01;;;;;;;4.40;4.00;;;11.40;99.90;;;;;;5058611;28;20048;-84
2022/01/02 09:29:28;;;;;;;5.25;4.05;;;11.40;99.90;;;;;;5059326;28;20114;-84
2022/01/02 09:31:55;;;;;;;4.68;4.18;;;11.40;99.90;;;;;;5076716;28;20486;-84
2022/01/02 09:34:22;;;;;;;4.32;3.53;;;11.40;99.90;;;;;;5077450;28;20072;-83
2022/01/02 09:36:48;;;;;;;6.43;3.80;;;11.40;99.90;;;;;;5076879;28;20059;-83
2022/01/02 09:39:15;;;;;;;6.30;4.80;;;11.30;99.90;;;;;;5058044;28;20131;-84
2022/01/02 09:41:42;;;;;;;8.38;6.15;;;11.20;99.90;;;;;;5059227;28;20127;-84
2022/01/02 09:44:08;;;;;;;5.60;4.15;;;11.10;99.90;;;;;;5058564;28;20547;-83
2022/01/02 09:46:38;;;;;;;4.95;4.45;;;11.00;99.90;;;;;;5059402;28;20128;-84
2022/01/02 09:49:08;;;;;;;7.57;3.97;;;10.90;99.90;;;;;;5060236;28;20055;-83
2022/01/02 09:51:35;;;;;;;4.60;3.75;;;10.90;99.90;;;;;;5061944;28;20084;-83
2022/01/02 09:54:02;;;;;;;5.63;4.30;;;10.80;99.90;;;;;;5079302;28;20048;-83
2022/01/02 09:56:29;;;;;;;5.00;4.00;;;10.70;99.90;;;;;;5062024;28;20048;-83
2022/01/02 09:58:56;;;;;;;5.93;3.97;;;10.60;99.90;;;;;;5062922;28;20048;-83
2022/01/02 10:01:24;;;;;;;5.22;3.95;;;10.60;99.90;;;;;;5064045;28;20171;-84
2022/01/02 10:03:55;;;;;;;5.03;4.20;;;10.40;99.90;;;;;;5080407;28;20048;-83
2022/01/02 10:06:48;;;;;;;5.80;4.28;;;10.40;99.90;;;;;;5061631;28;20132;-84
2022/01/02 10:09:35;;;;;;;4.72;3.70;;;10.40;99.90;;;;;;5079523;28;20135;-83
2022/01/02 10:12:21;;;;;;;5.18;4.30;;;10.40;99.90;;;;;;5079597;28;20055;-83
2022/01/02 10:15:12;;;;;;;5.88;4.65;;;10.40;99.90;;;;;;5061846;28;20405;-83
2022/01/02 10:18:07;;;;;;;5.28;4.50;;;10.30;99.90;;;;;;5061842;28;20053;-84
2022/01/02 10:20:40;;;;;;;5.60;4.13;;;10.30;99.90;;;;;;5060759;28;20082;-83
2022/01/02 10:23:10;;;;;;;5.25;4.43;;;10.20;99.90;;;;;;5060983;28;20552;-82
2022/01/02 10:25:39;;;;;;;6.07;4.38;;;10.20;99.90;;;;;;5063475;28;20078;-83
2022/01/02 10:28:29;;;;;;;7.88;5.18;;;10.10;99.90;;;;;;5063285;28;20151;-84
2022/01/02 10:31:08;;;;;;;5.60;4.95;;;10.10;99.90;;;;;;5063069;28;20136;-84
2022/01/02 10:33:49;;;;;;;7.28;4.90;;;10.00;99.90;;;;;;5081266;28;20127;-83
2022/01/02 10:36:24;;;;;;;8.10;5.22;;;9.90;99.90;;;;;;5068677;28;20116;-83
2022/01/02 10:39:15;;;;;;;6.35;5.70;;;10.00;99.90;;;;;;5066776;28;20083;-83
2022/01/02 10:41:45;;;;;;;10.18;5.68;;;10.00;99.90;;;;;;5063996;28;20082;-84
2022/01/02 10:44:19;;;;;;;5.90;5.30;;;9.90;99.90;;;;;;5063270;28;20072;-83
2022/01/02 10:47:14;;;;;;;7.15;5.43;;;9.90;99.90;;;;;;5063199;28;20545;-84
2022/01/02 10:49:52;;;;;;;4.93;4.03;;;9.90;99.90;;;;;;5080513;28;20528;-84
2022/01/02 10:52:19;;;;;;;6.32;4.95;;;9.90;99.90;;;;;;5088285;28;20484;-83
2022/01/02 10:54:46;;;;;;;7.40;4.88;;;10.00;99.90;;;;;;5067353;28;20071;-83
2022/01/02 10:57:13;;;;;;;4.90;4.40;;;10.00;99.90;;;;;;5062815;28;20146;-83
2022/01/02 10:59:41;;;;;;;5.60;4.38;;;10.10;99.90;;;;;;5062016;28;20158;-83
2022/01/02 11:02:10;;;;;;;5.60;4.20;;;10.20;99.90;;;;;;5062309;28;20127;-83
2022/01/02 11:04:45;;;;;;;5.10;4.25;;;10.30;99.90;;;;;;5063408;28;20083;-83
2022/01/02 11:07:17;;;;;;;4.65;4.25;;;10.50;99.90;;;;;;5062361;28;20044;-83
2022/01/02 11:09:45;;;;;;;4.20;3.80;;;10.60;99.90;;;;;;5061516;28;20045;-83
2022/01/02 11:12:13;;;;;;;4.10;3.53;;;10.60;99.90;;;;;;5060778;28;20130;-83
2022/01/02 11:14:40;;;;;;;5.13;4.13;;;10.70;99.90;;;;;;5060602;28;20102;-83
2022/01/02 11:17:07;;;;;;;5.93;4.50;;;10.60;99.90;;;;;;5058040;28;20052;-82
2022/01/02 11:19:34;;;;;;;5.78;4.10;;;10.60;99.90;;;;;;5075479;28;20105;-82
2022/01/02 11:22:03;;;;;;;7.20;4.28;;;10.70;99.90;;;;;;5075246;28;20075;-83
2022/01/02 11:24:38;;;;;;;5.95;4.35;;;10.80;99.90;;;;;;5075583;28;20045;-83
2022/01/02 11:27:18;;;;;;;4.20;3.80;;;10.90;99.90;;;;;;5058009;28;20052;-82
2022/01/02 11:29:45;;;;;;;4.88;3.70;;;11.10;99.90;;;;;;5076063;28;20132;-83
2022/01/02 11:32:26;;;;;;;4.38;3.97;;;11.20;99.90;;;;;;5075537;28;20537;-83
2022/01/02 11:34:55;;;;;;;5.82;3.92;;;11.30;99.90;;;;;;5057816;28;20572;-83
2022/01/02 11:37:27;;;;;;;4.88;3.72;;;11.30;99.90;;;;;;5058869;28;20048;-82
2022/01/02 11:40:12;;;;;;;5.95;4.03;;;11.30;99.90;;;;;;5057588;28;20132;-83
2022/01/02 11:42:44;;;;;;;4.60;3.60;;;11.30;99.90;;;;;;5057890;28;20494;-82
2022/01/02 11:45:34;;;;;;;5.28;4.03;;;11.30;99.90;;;;;;5057985;28;20500;-82
2022/01/02 11:48:28;;;;;;;4.15;3.50;;;11.20;99.90;;;;;;5058333;28;20052;-82
2022/01/02 11:50:55;;;;;;;5.78;3.88;;;11.30;99.90;;;;;;5086842;28;20048;-82
2022/01/02 11:53:23;;;;;;;4.78;3.58;;;11.30;99.90;;;;;;5086375;28;20076;-83
2022/01/02 11:55:52;;;;;;;4.05;3.40;;;11.40;99.90;;;;;;5061724;28;20052;-83
2022/01/02 11:58:55;;;;;;;4.20;3.75;;;11.40;99.90;;;;;;5061445;28;20059;-84
2022/01/02 12:01:47;;;;;;;4.15;3.72;;;11.40;99.90;;;;;;4961434;28;20055;-83
2022/01/02 12:04:15;;;;;;;4.20;3.72;;;11.40;99.90;;;;;;5061225;28;20166;-83
2022/01/02 12:06:52;;;;;;;4.72;3.97;;;11.40;99.90;;;;;;5080216;28;20055;-83
2022/01/02 12:09:38;;;;;;;4.22;3.83;;;11.30;99.90;;;;;;5061624;28;20078;-83
2022/01/02 12:12:06;;;;;;;9.52;7.05;;;11.30;99.90;;;;;;5060602;28;20088;-83
2022/01/02 12:14:51;;;;;;;5.03;4.47;;;11.40;99.90;;;;;;5061066;28;20112;-83
2022/01/02 12:17:23;;;;;;;5.70;4.47;;;11.40;99.90;;;;;;5061169;28;20112;-83
2022/01/02 12:19:59;;;;;;;4.10;3.65;;;11.50;99.90;;;;;;5060594;28;20135;-83
2022/01/02 12:22:40;;;;;;;5.25;3.30;;;11.60;99.90;;;;;;5061491;28;20070;-84
2022/01/02 12:25:16;;;;;;;4.28;3.30;;;11.60;99.90;;;;;;5088061;28;20079;-83
2022/01/02 12:27:49;;;;;;;3.63;3.33;;;11.70;99.90;;;;;;5076345;28;20044;-83
2022/01/02 12:30:17;;;;;;;3.40;3.03;;;11.60;99.90;;;;;;5070710;28;20505;-84
2022/01/02 12:32:46;;;;;;;5.90;3.78;;;11.60;99.90;;;;;;5061044;28;20140;-83
2022/01/02 12:35:12;;;;;;;5.55;3.70;;;11.60;99.90;;;;;;5078392;28;20084;-83
2022/01/02 12:37:40;;;;;;;3.70;3.40;;;11.50;99.90;;;;;;5061838;28;20473;-82
2022/01/02 12:40:17;;;;;;;6.13;3.83;;;11.60;99.90;;;;;;5077763;28;20458;-82
2022/01/02 12:42:45;;;;;;;3.97;3.38;;;11.70;99.90;;;;;;5073359;28;20072;-83
2022/01/02 12:45:15;;;;;;;4.70;3.20;;;11.70;99.90;;;;;;5060553;28;20083;-83
2022/01/02 12:47:50;;;;;;;3.40;3.17;;;11.80;99.90;;;;;;5078972;28;20139;-83
2022/01/02 12:50:28;;;;;;;3.33;3.03;;;12.00;99.90;;;;;;5060677;28;20135;-83
2022/01/02 12:52:56;;;;;;;3.85;3.45;;;12.10;99.90;;;;;;5060718;28;20087;-83
2022/01/02 12:55:25;;;;;;;3.33;2.95;;;12.10;99.90;;;;;;5062084;28;20071;-83
2022/01/02 12:58:02;;;;;;;5.45;3.22;;;12.00;99.90;;;;;;5077991;28;20063;-83
2022/01/02 13:00:29;;;;;;;4.63;3.33;;;11.90;99.90;;;;;;5077411;28;20080;-83
2022/01/02 13:02:57;;;;;;;5.13;3.65;;;11.80;99.90;;;;;;5059843;28;20071;-83
2022/01/02 13:05:25;;;;;;;4.72;3.42;;;11.80;99.90;;;;;;5059882;28;20083;-83
2022/01/02 13:07:59;;;;;;;3.38;3.13;;;11.70;99.90;;;;;;5076527;28;20108;-83